createdAt,value
2017-09-25T00:00:09.897Z,23.09
2017-09-25T00:02:16.201Z,22.91
2017-09-25T00:04:24.861Z,22.93
2017-09-25T00:06:30.996Z,22.87
2017-09-25T00:08:37.598Z,22.77
2017-09-25T00:10:43.617Z,22.87
2017-09-25T00:12:49.710Z,22.72
2017-09-25T00:14:56.149Z,22.84
2017-09-25T00:17:02.263Z,22.86
2017-09-25T00:19:08.517Z,22.77
2017-09-25T00:21:13.998Z,22.92
2017-09-25T00:23:20.588Z,22.93
2017-09-25T00:25:28.374Z,22.93
2017-09-25T00:27:35.593Z,23.00
2017-09-25T00:29:43.782Z,22.82
2017-09-25T00:31:50.017Z,22.98
2017-09-25T00:33:55.404Z,22.82
2017-09-25T00:36:01.873Z,22.99
2017-09-25T00:38:07.842Z,22.86
2017-09-25T00:40:14.072Z,22.93
2017-09-25T00:42:21.745Z,22.96
2017-09-25T00:44:28.239Z,22.92
2017-09-25T00:46:35.885Z,22.92
2017-09-25T00:48:41.668Z,22.79
2017-09-25T00:50:50.504Z,22.89
2017-09-25T00:53:04.978Z,22.74
2017-09-25T00:55:18.994Z,22.88
2017-09-25T00:57:26.494Z,22.87
2017-09-25T00:59:33.680Z,22.83
2017-09-25T01:01:48.489Z,23.00
2017-09-25T01:03:57.994Z,22.76
2017-09-25T01:06:12.288Z,22.90
2017-09-25T01:08:19.442Z,22.90
2017-09-25T01:10:25.882Z,22.90
2017-09-25T01:12:33.075Z,22.80
2017-09-25T01:14:39.206Z,22.84
2017-09-25T01:16:46.218Z,23.02
2017-09-25T01:18:52.084Z,23.05
2017-09-25T01:20:59.841Z,22.81
2017-09-25T01:23:06.636Z,22.91
2017-09-25T01:25:12.517Z,22.83
2017-09-25T01:27:19.139Z,22.96
2017-09-25T01:29:24.748Z,22.90
2017-09-25T01:31:31.538Z,22.93
2017-09-25T01:33:39.408Z,22.88
2017-09-25T01:35:44.579Z,22.82
2017-09-25T01:37:50.292Z,23.07
2017-09-25T01:39:56.346Z,23.15
2017-09-25T01:42:02.148Z,23.08
2017-09-25T01:44:08.381Z,23.00
2017-09-25T01:46:14.363Z,22.89
2017-09-25T01:48:21.754Z,22.80
2017-09-25T01:50:28.442Z,22.79
2017-09-25T01:52:34.989Z,22.70
2017-09-25T01:54:41.958Z,22.98
2017-09-25T01:56:47.979Z,23.02
2017-09-25T01:58:53.693Z,22.91
2017-09-25T02:00:59.107Z,22.81
2017-09-25T02:03:05.572Z,22.88
2017-09-25T02:05:11.767Z,23.00
2017-09-25T02:07:17.776Z,23.04
2017-09-25T02:09:27.442Z,22.87
2017-09-25T02:11:35.904Z,23.02
2017-09-25T02:13:41.318Z,23.06
2017-09-25T02:15:47.087Z,23.09
2017-09-25T02:17:53.006Z,23.07
2017-09-25T02:19:58.926Z,22.92
2017-09-25T02:22:04.890Z,22.92
2017-09-25T02:24:10.661Z,22.90
2017-09-25T02:26:16.588Z,22.92
2017-09-25T02:28:23.989Z,22.82
2017-09-25T02:30:30.414Z,22.86
2017-09-25T02:32:39.051Z,22.75
2017-09-25T02:34:45.160Z,22.70
2017-09-25T02:36:51.569Z,22.69
2017-09-25T02:38:57.511Z,22.83
2017-09-25T02:41:04.274Z,22.79
2017-09-25T02:43:10.068Z,22.83
2017-09-25T02:45:16.423Z,22.95
2017-09-25T02:47:22.905Z,23.02
2017-09-25T02:49:30.079Z,22.98
2017-09-25T02:51:37.085Z,22.96
2017-09-25T02:53:42.621Z,22.91
2017-09-25T02:55:49.166Z,22.76
2017-09-25T02:57:55.782Z,22.75
2017-09-25T03:00:01.985Z,22.78
2017-09-25T03:02:07.929Z,22.88
2017-09-25T03:04:13.775Z,22.84
2017-09-25T03:06:21.335Z,22.87
2017-09-25T03:08:27.805Z,22.90
2017-09-25T03:10:36.028Z,22.84
2017-09-25T03:12:41.896Z,22.66
2017-09-25T03:14:47.748Z,22.79
2017-09-25T03:16:53.727Z,22.92
2017-09-25T03:18:59.701Z,23.00
2017-09-25T03:21:06.123Z,22.91
2017-09-25T03:23:12.441Z,22.85
2017-09-25T03:25:18.561Z,22.80
2017-09-25T03:27:26.300Z,22.86
2017-09-25T03:29:33.236Z,22.89
2017-09-25T03:31:39.817Z,22.88
2017-09-25T03:33:46.001Z,22.93
2017-09-25T03:35:53.090Z,23.01
2017-09-25T03:37:59.034Z,22.92
2017-09-25T03:40:04.820Z,22.80
2017-09-25T03:42:10.706Z,22.86
2017-09-25T03:44:17.567Z,23.03
2017-09-25T03:46:25.635Z,22.80
2017-09-25T03:48:32.170Z,22.87
2017-09-25T03:50:38.660Z,22.91
2017-09-25T03:52:44.843Z,22.84
2017-09-25T03:54:50.286Z,22.89
2017-09-25T03:56:56.693Z,22.93
2017-09-25T03:59:02.939Z,22.84
2017-09-25T04:01:09.042Z,22.73
2017-09-25T04:03:14.425Z,22.62
2017-09-25T04:05:21.760Z,22.49
2017-09-25T04:07:36.877Z,22.67
2017-09-25T04:09:43.142Z,22.68
2017-09-25T04:11:48.737Z,22.45
2017-09-25T04:13:54.465Z,22.44
2017-09-25T04:16:00.982Z,22.53
2017-09-25T04:18:06.553Z,22.55
2017-09-25T04:20:12.948Z,22.64
2017-09-25T04:22:19.308Z,22.52
2017-09-25T04:24:25.267Z,22.53
2017-09-25T04:26:31.928Z,22.55
2017-09-25T04:28:38.727Z,22.57
2017-09-25T04:30:44.307Z,22.59
2017-09-25T04:32:50.541Z,22.61
2017-09-25T04:34:57.303Z,22.41
2017-09-25T04:37:03.476Z,22.46
2017-09-25T04:39:10.076Z,22.50
2017-09-25T04:41:16.610Z,22.40
2017-09-25T04:43:22.322Z,22.59
2017-09-25T04:45:29.045Z,22.69
2017-09-25T04:47:35.752Z,22.54
2017-09-25T04:49:42.707Z,22.48
2017-09-25T04:53:57.801Z,22.45
2017-09-25T04:56:03.261Z,22.47
2017-09-25T04:58:08.949Z,22.55
2017-09-25T05:00:15.203Z,22.41
2017-09-25T05:02:20.996Z,22.31
2017-09-25T05:04:29.513Z,22.45
2017-09-25T05:06:37.329Z,22.49
2017-09-25T05:08:44.816Z,22.67
2017-09-25T05:10:51.103Z,22.50
2017-09-25T05:12:57.260Z,22.56
2017-09-25T05:15:02.880Z,22.41
2017-09-25T05:17:09.363Z,22.59
2017-09-25T05:19:15.098Z,22.60
2017-09-25T05:21:20.912Z,22.49
2017-09-25T05:23:28.221Z,22.49
2017-09-25T05:25:36.136Z,22.50
2017-09-25T05:27:44.688Z,22.49
2017-09-25T05:29:50.205Z,22.22
2017-09-25T05:31:56.373Z,22.28
2017-09-25T05:34:01.877Z,22.25
2017-09-25T05:36:08.418Z,22.41
2017-09-25T05:38:15.567Z,22.56
2017-09-25T05:40:21.562Z,22.52
2017-09-25T05:42:28.669Z,22.46
2017-09-25T05:44:36.090Z,22.35
2017-09-25T05:46:41.578Z,22.36
2017-09-25T05:48:47.107Z,22.36
2017-09-25T05:50:54.271Z,22.41
2017-09-25T05:52:59.958Z,22.32
2017-09-25T05:55:05.685Z,22.34
2017-09-25T05:57:12.078Z,22.31
2017-09-25T05:59:19.677Z,22.43
2017-09-25T06:01:26.721Z,22.36
2017-09-25T06:03:33.161Z,22.46
2017-09-25T06:05:47.827Z,22.34
2017-09-25T06:07:53.362Z,22.31
2017-09-25T06:09:59.062Z,22.41
2017-09-25T06:12:04.815Z,22.31
2017-09-25T06:14:10.346Z,22.31
2017-09-25T06:16:16.448Z,22.52
2017-09-25T06:18:22.490Z,22.48
2017-09-25T06:20:30.209Z,22.35
2017-09-25T06:22:38.140Z,22.39
2017-09-25T06:24:44.097Z,22.40
2017-09-25T06:26:49.497Z,22.48
2017-09-25T06:28:54.883Z,22.31
2017-09-25T06:31:01.053Z,22.45
2017-09-25T06:33:06.680Z,22.46
2017-09-25T06:35:12.576Z,22.25
2017-09-25T06:37:21.536Z,22.39
2017-09-25T06:39:27.905Z,22.39
2017-09-25T06:41:35.576Z,22.44
2017-09-25T06:43:41.221Z,22.43
2017-09-25T06:45:46.670Z,22.43
2017-09-25T06:47:52.072Z,22.59
2017-09-25T06:49:57.902Z,22.81
2017-09-25T06:52:04.497Z,22.56
2017-09-25T06:54:10.273Z,22.59
2017-09-25T06:56:15.996Z,22.79
2017-09-25T06:58:23.841Z,22.57
2017-09-25T07:00:29.214Z,22.44
2017-09-25T07:02:35.049Z,22.69
2017-09-25T07:04:40.517Z,22.80
2017-09-25T07:06:45.947Z,22.86
2017-09-25T07:08:51.656Z,22.59
2017-09-25T07:10:57.239Z,22.66
2017-09-25T07:13:02.779Z,22.67
2017-09-25T07:15:08.450Z,22.77
2017-09-25T07:17:13.809Z,22.77
2017-09-25T07:19:19.532Z,22.89
2017-09-25T07:21:26.351Z,22.55
2017-09-25T07:23:32.506Z,22.67
2017-09-25T07:25:39.421Z,22.58
2017-09-25T07:27:45.127Z,22.72
2017-09-25T07:29:51.080Z,22.69
2017-09-25T07:31:57.989Z,22.49
2017-09-25T07:34:05.025Z,22.59
2017-09-25T07:36:13.445Z,22.83
2017-09-25T07:38:25.643Z,22.63
2017-09-25T07:40:35.513Z,22.55
2017-09-25T07:42:43.246Z,22.55
2017-09-25T07:44:50.519Z,22.78
2017-09-25T07:46:56.492Z,22.72
2017-09-25T07:49:04.471Z,22.66
2017-09-25T07:51:10.699Z,22.66
2017-09-25T07:53:16.465Z,22.68
2017-09-25T07:55:22.915Z,22.67
2017-09-25T07:57:29.817Z,22.83
2017-09-25T07:59:37.158Z,22.71
2017-09-25T08:01:42.975Z,22.67
2017-09-25T08:03:50.410Z,22.73
2017-09-25T08:05:56.829Z,22.91
2017-09-25T08:08:02.354Z,22.83
2017-09-25T08:10:08.328Z,22.81
2017-09-25T08:12:13.812Z,22.87
2017-09-25T08:14:19.370Z,22.75
2017-09-25T08:16:26.123Z,22.65
2017-09-25T08:18:51.295Z,22.63
2017-09-25T08:20:58.905Z,22.81
2017-09-25T08:23:04.859Z,22.82
2017-09-25T08:25:11.055Z,22.86
2017-09-25T08:27:16.674Z,22.81
2017-09-25T08:29:25.740Z,22.84
2017-09-25T08:31:31.962Z,22.78
2017-09-25T08:33:37.435Z,22.75
2017-09-25T08:35:46.367Z,22.85
2017-09-25T08:37:54.658Z,22.71
2017-09-25T08:40:06.117Z,22.92
2017-09-25T08:42:14.309Z,22.90
2017-09-25T08:44:23.567Z,22.91
2017-09-25T08:46:39.169Z,22.66
2017-09-25T08:48:46.656Z,22.82
2017-09-25T08:51:01.419Z,22.88
2017-09-25T08:53:10.037Z,22.88
2017-09-25T08:55:15.513Z,22.86
2017-09-25T08:57:23.573Z,22.99
2017-09-25T08:59:31.654Z,23.05
2017-09-25T09:01:38.606Z,23.06
2017-09-25T09:03:44.389Z,22.97
2017-09-25T09:05:50.077Z,23.05
2017-09-25T09:07:55.522Z,22.97
2017-09-25T09:10:01.230Z,23.00
2017-09-25T09:12:07.067Z,22.96
2017-09-25T09:14:12.462Z,23.02
2017-09-25T09:16:18.168Z,23.24
2017-09-25T09:18:25.948Z,23.07
2017-09-25T09:20:31.535Z,23.42
2017-09-25T09:22:39.300Z,23.24
2017-09-25T09:24:45.049Z,23.19
2017-09-25T09:26:50.770Z,23.26
2017-09-25T09:28:56.253Z,23.35
2017-09-25T09:31:02.310Z,23.03
2017-09-25T09:33:08.775Z,23.13
2017-09-25T09:35:14.491Z,23.32
2017-09-25T09:37:20.651Z,23.02
2017-09-25T09:39:28.777Z,22.99
2017-09-25T09:41:36.173Z,23.18
2017-09-25T09:43:42.681Z,23.34
2017-09-25T09:45:48.048Z,23.31
2017-09-25T09:47:54.913Z,23.28
2017-09-25T09:50:00.273Z,23.44
2017-09-25T09:52:05.617Z,23.41
2017-09-25T09:54:14.680Z,23.34
2017-09-25T09:56:21.077Z,23.48
2017-09-25T09:58:28.470Z,23.36
2017-09-25T10:00:33.874Z,23.36
2017-09-25T10:02:39.413Z,23.37
2017-09-25T10:04:44.951Z,23.34
2017-09-25T10:06:51.210Z,23.20
2017-09-25T10:08:56.784Z,23.38
2017-09-25T10:11:02.292Z,23.25
2017-09-25T10:13:08.126Z,23.56
2017-09-25T10:15:13.665Z,23.60
2017-09-25T10:17:19.861Z,23.32
2017-09-25T10:19:26.534Z,23.47
2017-09-25T10:21:36.106Z,23.71
2017-09-25T10:23:45.242Z,23.54
2017-09-25T10:25:58.846Z,23.56
2017-09-25T10:28:12.129Z,23.74
2017-09-25T10:30:17.787Z,23.70
2017-09-25T10:32:25.537Z,23.73
2017-09-25T10:34:35.511Z,23.62
2017-09-25T10:36:41.875Z,23.90
2017-09-25T10:38:50.034Z,23.93
2017-09-25T10:40:55.468Z,23.87
2017-09-25T10:43:01.065Z,23.94
2017-09-25T10:45:06.841Z,24.15
2017-09-25T10:47:15.745Z,24.19
2017-09-25T10:49:22.855Z,23.88
2017-09-25T10:51:29.353Z,23.76
2017-09-25T10:53:42.128Z,23.85
2017-09-25T10:55:48.566Z,23.81
2017-09-25T10:57:54.378Z,24.05
2017-09-25T11:00:00.101Z,24.46
2017-09-25T11:02:05.654Z,24.71
2017-09-25T11:04:11.559Z,24.73
2017-09-25T11:06:17.942Z,24.56
2017-09-25T11:08:24.887Z,24.04
2017-09-25T11:10:33.367Z,24.48
2017-09-25T11:12:41.010Z,24.54
2017-09-25T11:14:46.532Z,24.19
2017-09-25T11:16:54.967Z,24.57
2017-09-25T11:19:00.391Z,24.67
2017-09-25T11:21:05.812Z,24.23
2017-09-25T11:23:11.554Z,23.88
2017-09-25T11:25:17.160Z,24.40
2017-09-25T11:27:23.175Z,24.39
2017-09-25T11:29:30.538Z,24.36
2017-09-25T11:31:38.590Z,23.94
2017-09-25T11:33:44.389Z,23.65
2017-09-25T11:35:50.251Z,23.70
2017-09-25T11:37:55.876Z,23.56
2017-09-25T11:40:01.584Z,23.57
2017-09-25T11:42:09.440Z,23.77
2017-09-25T11:44:16.735Z,23.93
2017-09-25T11:46:23.573Z,24.07
2017-09-25T11:48:30.888Z,24.11
2017-09-25T11:50:37.381Z,24.23
2017-09-25T11:52:43.309Z,24.29
2017-09-25T11:54:49.538Z,24.33
2017-09-25T11:56:55.085Z,24.17
2017-09-25T11:59:00.772Z,24.25
2017-09-25T12:01:06.351Z,24.38
2017-09-25T12:03:13.334Z,24.26
2017-09-25T12:05:20.124Z,24.34
2017-09-25T12:07:30.421Z,24.48
2017-09-25T12:09:36.065Z,24.25
2017-09-25T12:11:41.470Z,24.29
2017-09-25T12:13:47.153Z,24.25
2017-09-25T12:15:52.861Z,24.23
2017-09-25T12:17:58.477Z,24.06
2017-09-25T12:20:04.530Z,24.07
2017-09-25T12:22:10.366Z,24.21
2017-09-25T12:24:16.818Z,24.15
2017-09-25T12:26:23.916Z,24.13
2017-09-25T12:28:30.432Z,24.18
2017-09-25T12:30:37.995Z,24.23
2017-09-25T12:32:46.896Z,24.28
2017-09-25T12:34:52.883Z,24.34
2017-09-25T12:36:58.566Z,24.31
2017-09-25T12:39:04.610Z,24.18
2017-09-25T12:41:10.461Z,24.22
2017-09-25T12:43:16.146Z,24.41
2017-09-25T12:45:23.249Z,24.49
2017-09-25T12:47:29.774Z,24.38
2017-09-25T12:49:36.534Z,24.48
2017-09-25T12:51:42.562Z,24.15
2017-09-25T12:53:48.271Z,24.24
2017-09-25T12:55:57.227Z,24.36
2017-09-25T12:58:02.918Z,24.17
2017-09-25T13:00:11.808Z,24.27
2017-09-25T13:02:17.864Z,24.03
2017-09-25T13:04:34.385Z,23.98
2017-09-25T13:06:41.178Z,23.92
2017-09-25T13:08:46.828Z,23.90
2017-09-25T13:10:52.854Z,24.27
2017-09-25T13:12:59.385Z,23.82
2017-09-25T13:15:05.944Z,24.09
2017-09-25T13:17:12.335Z,24.15
2017-09-25T13:19:21.821Z,24.22
2017-09-25T13:21:28.406Z,24.39
2017-09-25T13:23:35.740Z,24.39
2017-09-25T13:25:43.365Z,24.13
2017-09-25T13:27:50.766Z,24.25
2017-09-25T13:29:57.723Z,24.40
2017-09-25T13:32:03.357Z,24.42
2017-09-25T13:34:10.154Z,24.14
2017-09-25T13:36:18.147Z,24.42
2017-09-25T13:38:25.997Z,24.54
2017-09-25T13:40:35.538Z,24.70
2017-09-25T13:42:41.816Z,24.65
2017-09-25T13:44:48.626Z,24.17
2017-09-25T13:46:54.255Z,24.39
2017-09-25T13:49:00.448Z,24.61
2017-09-25T13:51:07.287Z,24.65
2017-09-25T13:53:13.096Z,24.19
2017-09-25T13:55:21.878Z,23.97
2017-09-25T13:57:28.550Z,23.87
2017-09-25T14:03:56.983Z,24.32
2017-09-25T14:06:02.806Z,24.30
2017-09-25T14:08:08.801Z,23.99
2017-09-25T14:10:14.336Z,24.04
2017-09-25T14:12:23.718Z,24.22
2017-09-25T14:14:30.701Z,23.95
2017-09-25T14:16:37.882Z,23.89
2017-09-25T14:18:43.397Z,23.91
2017-09-25T14:20:49.471Z,24.06
2017-09-25T14:22:55.160Z,23.99
2017-09-25T14:25:00.676Z,24.03
2017-09-25T14:27:06.460Z,24.22
2017-09-25T14:29:11.965Z,24.02
2017-09-25T14:31:20.057Z,24.43
2017-09-25T14:33:26.561Z,24.63
2017-09-25T14:35:32.543Z,24.70
2017-09-25T14:37:38.220Z,24.76
2017-09-25T14:39:45.101Z,24.30
2017-09-25T14:41:50.799Z,24.06
2017-09-25T14:43:56.385Z,24.03
2017-09-25T14:46:04.082Z,24.45
2017-09-25T14:48:10.059Z,24.07
2017-09-25T14:50:15.698Z,24.00
2017-09-25T14:52:26.605Z,24.01
2017-09-25T14:54:44.268Z,23.85
2017-09-25T14:56:50.438Z,24.19
2017-09-25T14:58:57.990Z,24.27
2017-09-25T15:01:07.184Z,24.42
2017-09-25T15:03:19.282Z,24.27
2017-09-25T15:05:29.610Z,24.17
2017-09-25T15:07:37.044Z,24.28
2017-09-25T15:12:15.345Z,24.30
2017-09-25T15:14:28.478Z,23.92
2017-09-25T15:16:39.107Z,23.87
2017-09-25T15:18:47.148Z,23.97
2017-09-25T15:20:53.829Z,23.94
2017-09-25T15:22:59.396Z,24.12
2017-09-25T15:25:08.280Z,24.03
2017-09-25T15:27:14.255Z,23.96
2017-09-25T15:29:23.635Z,23.67
2017-09-25T15:31:32.883Z,23.73
2017-09-25T15:33:40.782Z,23.46
2017-09-25T15:35:46.817Z,23.36
2017-09-25T15:37:53.120Z,23.45
2017-09-25T15:40:08.423Z,23.49
2017-09-25T15:42:14.494Z,23.43
2017-09-25T15:44:24.322Z,23.31
2017-09-25T15:46:30.230Z,23.31
2017-09-25T15:48:37.383Z,23.34
2017-09-25T15:50:43.928Z,23.28
2017-09-25T15:52:49.429Z,23.14
2017-09-25T15:54:55.928Z,23.07
2017-09-25T15:57:02.598Z,23.10
2017-09-25T15:59:08.484Z,23.34
2017-09-25T16:01:14.314Z,23.39
2017-09-25T16:03:23.893Z,23.41
2017-09-25T16:05:32.005Z,23.51
2017-09-25T16:07:39.587Z,23.35
2017-09-25T16:09:45.782Z,23.22
2017-09-25T16:11:51.883Z,23.31
2017-09-25T16:13:58.509Z,23.15
2017-09-25T16:16:04.158Z,23.14
2017-09-25T16:18:13.805Z,23.20
2017-09-25T16:20:19.999Z,23.13
2017-09-25T16:22:32.164Z,22.93
2017-09-25T16:24:45.476Z,22.81
2017-09-25T16:26:51.202Z,22.71
2017-09-25T16:28:57.892Z,22.73
2017-09-25T16:31:05.335Z,22.77
2017-09-25T16:33:11.340Z,22.79
2017-09-25T16:35:17.464Z,22.97
2017-09-25T16:37:27.833Z,23.07
2017-09-25T16:43:00.282Z,23.02
2017-09-25T16:45:09.204Z,23.06
2017-09-25T16:47:17.668Z,22.98
2017-09-25T16:49:28.997Z,22.91
2017-09-25T16:51:39.125Z,23.01
2017-09-25T16:53:46.121Z,22.91
2017-09-25T16:55:53.208Z,22.87
2017-09-25T16:58:00.249Z,22.86
2017-09-25T17:00:07.908Z,22.75
2017-09-25T17:02:13.945Z,22.83
2017-09-25T17:04:19.726Z,22.79
2017-09-25T17:06:30.381Z,23.04
2017-09-25T17:08:36.681Z,22.92
2017-09-25T17:10:42.651Z,23.05
2017-09-25T17:12:48.923Z,22.93
2017-09-25T17:14:54.492Z,22.94
2017-09-25T17:17:00.533Z,22.95
2017-09-25T17:21:29.590Z,22.96
2017-09-25T17:23:38.208Z,23.09
2017-09-25T17:25:43.861Z,23.19
2017-09-25T17:28:00.295Z,22.94
2017-09-25T17:32:42.308Z,22.81
2017-09-25T17:34:50.312Z,22.70
2017-09-25T17:37:00.770Z,22.81
2017-09-25T17:39:07.467Z,22.80
2017-09-25T17:41:16.309Z,22.72
2017-09-25T17:43:21.917Z,22.78
2017-09-25T17:45:30.259Z,22.76
2017-09-25T17:47:42.458Z,22.82
2017-09-25T17:49:50.660Z,22.73
2017-09-25T17:53:24.817Z,22.62
2017-09-25T17:55:37.996Z,22.51
2017-09-25T17:57:44.085Z,22.55
2017-09-25T17:59:54.920Z,22.46
2017-09-25T18:04:21.914Z,22.64
2017-09-25T18:06:34.524Z,22.76
2017-09-25T18:08:42.538Z,22.67
2017-09-25T18:10:55.963Z,22.66
2017-09-25T18:13:04.231Z,22.71
2017-09-25T18:15:15.419Z,22.66
2017-09-25T18:17:23.482Z,22.56
2017-09-25T18:19:34.811Z,22.60
2017-09-25T18:21:42.740Z,22.63
2017-09-25T18:23:51.959Z,22.71
2017-09-25T18:26:04.619Z,22.87
2017-09-25T18:28:13.117Z,22.79
2017-09-25T18:30:21.925Z,22.72
2017-09-25T18:32:36.786Z,23.04
2017-09-25T18:34:55.526Z,23.00
2017-09-25T18:37:03.436Z,22.79
2017-09-25T18:39:11.637Z,22.78
2017-09-25T18:41:18.419Z,22.75
2017-09-25T18:43:38.820Z,22.68
2017-09-25T18:45:50.152Z,22.71
2017-09-25T18:48:08.947Z,22.67
2017-09-25T18:50:23.351Z,22.69
2017-09-25T18:52:36.742Z,22.81
2017-09-25T18:54:43.742Z,22.89
2017-09-25T18:56:49.790Z,22.88
2017-09-25T18:58:56.195Z,23.11
2017-09-25T19:01:04.952Z,22.98
2017-09-25T19:03:11.810Z,22.96
2017-09-25T19:05:18.016Z,23.09
2017-09-25T19:07:25.636Z,23.06
2017-09-25T19:09:35.742Z,23.03
2017-09-25T19:11:41.405Z,23.08
2017-09-25T19:13:47.704Z,22.86
2017-09-25T19:15:54.860Z,22.75
2017-09-25T19:18:02.652Z,22.63
2017-09-25T19:20:09.403Z,22.97
2017-09-25T19:22:16.351Z,23.34
2017-09-25T19:26:45.743Z,23.50
2017-09-25T19:28:54.110Z,23.49
2017-09-25T19:31:00.898Z,23.36
2017-09-25T19:33:08.817Z,23.29
2017-09-25T19:35:17.264Z,23.26
2017-09-25T19:37:26.139Z,23.11
2017-09-25T19:39:34.724Z,23.11
2017-09-25T19:41:41.930Z,23.34
2017-09-25T19:43:48.227Z,23.65
2017-09-25T19:45:54.754Z,23.57
2017-09-25T19:48:01.189Z,23.58
2017-09-25T19:50:08.057Z,23.26
2017-09-25T19:52:15.171Z,23.02
2017-09-25T19:54:21.296Z,23.10
2017-09-25T19:56:28.881Z,23.04
2017-09-25T19:58:38.548Z,23.09
2017-09-25T20:00:46.231Z,23.14
2017-09-25T20:02:52.440Z,23.13
2017-09-25T20:04:58.644Z,23.23
2017-09-25T20:07:05.355Z,23.19
2017-09-25T20:09:12.190Z,23.01
2017-09-25T20:11:18.023Z,23.18
2017-09-25T20:13:25.658Z,23.29
2017-09-25T20:15:35.906Z,23.16
2017-09-25T20:17:45.427Z,23.20
2017-09-25T20:19:52.000Z,23.08
2017-09-25T20:21:58.937Z,23.22
2017-09-25T20:24:06.925Z,23.24
2017-09-25T20:26:14.193Z,23.26
2017-09-25T20:28:26.663Z,23.19
2017-09-25T20:30:32.592Z,22.94
2017-09-25T20:32:47.204Z,22.96
2017-09-25T20:34:55.485Z,22.89
2017-09-25T20:37:03.283Z,22.84
2017-09-25T20:39:12.081Z,22.82
2017-09-25T20:41:24.128Z,22.96
2017-09-25T20:43:38.248Z,22.91
2017-09-25T20:45:46.063Z,22.83
2017-09-25T20:47:56.805Z,22.96
2017-09-25T20:50:03.492Z,22.85
2017-09-25T20:52:11.068Z,22.92
2017-09-25T20:54:22.055Z,22.97
2017-09-25T20:56:35.217Z,22.91
2017-09-25T20:58:47.002Z,22.89
2017-09-25T21:00:57.701Z,22.88
2017-09-25T21:03:07.803Z,22.78
2017-09-25T21:05:13.917Z,22.72
2017-09-25T21:07:19.594Z,22.93
2017-09-25T21:09:27.428Z,22.84
2017-09-25T21:13:53.533Z,22.77
2017-09-25T21:16:00.061Z,22.91
2017-09-25T21:18:07.640Z,22.70
2017-09-25T21:20:13.901Z,23.09
2017-09-25T21:22:23.708Z,23.02
2017-09-25T21:24:30.504Z,22.94
2017-09-25T21:26:43.717Z,22.85
2017-09-25T21:28:50.656Z,22.78
2017-09-25T21:30:56.859Z,22.70
2017-09-25T21:33:03.090Z,22.97
2017-09-25T21:35:10.505Z,22.65
2017-09-25T21:37:16.653Z,22.73
2017-09-25T21:39:22.811Z,22.57
2017-09-25T21:41:29.046Z,22.62
2017-09-25T21:43:46.031Z,22.78
2017-09-25T21:46:00.512Z,22.84
2017-09-25T21:48:06.803Z,22.80
2017-09-25T21:50:13.780Z,22.68
2017-09-25T21:52:19.501Z,22.88
2017-09-25T21:54:25.560Z,23.03
2017-09-25T21:56:32.459Z,23.11
2017-09-25T21:58:41.031Z,23.05
2017-09-25T22:00:50.429Z,23.10
2017-09-25T22:02:56.891Z,22.81
2017-09-25T22:05:02.728Z,22.68
2017-09-25T22:07:08.920Z,22.70
2017-09-25T22:09:15.611Z,22.59
2017-09-25T22:11:23.633Z,22.61
2017-09-25T22:13:31.002Z,22.56
2017-09-25T22:15:47.225Z,22.76
2017-09-25T22:17:57.058Z,22.83
2017-09-25T22:20:10.345Z,22.42
2017-09-25T22:22:27.415Z,22.57
2017-09-25T22:24:42.722Z,22.68
2017-09-25T22:26:55.483Z,22.88
2017-09-25T22:29:02.147Z,22.93
2017-09-25T22:31:08.152Z,23.09
2017-09-25T22:33:14.338Z,22.88
2017-09-25T22:35:20.651Z,22.95
2017-09-25T22:37:29.061Z,22.89
2017-09-25T22:39:37.589Z,22.90
2017-09-25T22:41:49.836Z,22.88
2017-09-25T22:43:55.763Z,22.91
2017-09-25T22:46:03.047Z,22.87
2017-09-25T22:48:09.062Z,22.82
2017-09-25T22:50:15.582Z,23.09
2017-09-25T22:52:22.433Z,23.18
2017-09-25T22:54:30.949Z,23.05
2017-09-25T22:56:38.373Z,22.87
2017-09-25T22:58:47.696Z,22.70
2017-09-25T23:00:53.264Z,22.83
2017-09-25T23:03:00.001Z,22.87
2017-09-25T23:05:08.396Z,22.83
2017-09-25T23:07:15.904Z,22.87
2017-09-25T23:09:25.771Z,22.83
2017-09-25T23:11:34.244Z,22.70
2017-09-25T23:13:43.514Z,22.74
2017-09-25T23:15:49.050Z,22.66
2017-09-25T23:17:55.438Z,22.64
2017-09-25T23:20:00.977Z,22.62
2017-09-25T23:22:06.925Z,22.81
2017-09-25T23:24:18.663Z,22.88
2017-09-25T23:26:25.027Z,22.81
2017-09-25T23:28:32.373Z,22.95
2017-09-25T23:30:40.105Z,22.91
2017-09-25T23:32:47.798Z,22.81
2017-09-25T23:34:53.306Z,22.76
2017-09-25T23:36:59.590Z,22.51
2017-09-25T23:39:07.110Z,22.25
2017-09-25T23:41:12.549Z,22.38
2017-09-25T23:43:19.540Z,22.64
2017-09-25T23:45:24.814Z,22.75
2017-09-25T23:47:36.846Z,22.81
2017-09-25T23:49:44.902Z,22.72
2017-09-25T23:54:12.261Z,22.97
2017-09-25T23:56:18.574Z,22.79
2017-09-25T23:58:28.866Z,22.83
